Terminal Aerodrome Forecast
Issued by NWS Lake Charles, LA

Home | Current Version | Previous Version | Text Only | Print | Product List | Glossary On
Versions: 1 2 3 4 5 6 7 8 9 10 11 12 13 14
000
FTUS44 KLCH 012300
TAFAEX
TAF
KAEX 012327Z 0200/0224 14005KT P6SM SCT035 SCT050
     FM020600 16003KT 6SM BR BKN015
     FM020900 14003KT 4SM BR BKN008
     FM021500 16006KT P6SM VCSH BKN025
     FM021700 19011G18KT P6SM VCTS SCT035CB BKN050=

USA.gov is the U.S. government's official web portal to all federal, state and local government web resources and services.